Time;durP1;ratioP1;P1;durP2;ratioP2;P2;SDS_P1;SDS_P2;PMS_P1;PMS_P2;Temp;Humidity;BMP_temperature;BMP_pressure;BME280_temperature;BME280_humidity;BME280_pressure;Samples;Min_cycle;Max_cycle;Signal;HPM_P1;HPM_P2
2021/05/02 00:00:07;;;;;;;0.60;0.60;;;6.20;99.90;;;;;;5068062;28;20208;-77
2021/05/02 00:02:34;;;;;;;0.60;0.60;;;6.20;99.90;;;;;;5068705;28;20203;-77
2021/05/02 00:05:01;;;;;;;0.60;0.60;;;6.10;99.90;;;;;;5068411;28;20236;-77
2021/05/02 00:07:28;;;;;;;0.60;0.60;;;6.10;99.90;;;;;;5068650;28;20291;-77
2021/05/02 00:09:55;;;;;;;0.60;0.60;;;6.20;99.90;;;;;;5068338;28;20728;-76
2021/05/02 00:12:22;;;;;;;0.60;0.60;;;6.00;99.90;;;;;;5068064;28;20627;-77
2021/05/02 00:14:48;;;;;;;0.60;0.60;;;6.10;99.90;;;;;;5068400;28;20203;-77
2021/05/02 00:17:14;;;;;;;0.60;0.60;;;6.20;99.90;;;;;;5068419;28;20223;-77
2021/05/02 00:19:42;;;;;;;0.55;0.55;;;6.30;99.90;;;;;;5068086;28;20207;-77
2021/05/02 00:22:10;;;;;;;0.60;0.60;;;6.20;99.90;;;;;;5068495;28;20606;-77
2021/05/02 00:24:37;;;;;;;0.60;0.60;;;6.30;99.90;;;;;;5068609;28;20253;-77
2021/05/02 00:27:03;;;;;;;0.60;0.60;;;6.30;99.90;;;;;;5067420;28;20227;-77
2021/05/02 00:29:30;;;;;;;0.52;0.52;;;6.50;99.90;;;;;;5068475;28;20285;-77
2021/05/02 00:31:58;;;;;;;0.60;0.60;;;6.50;99.90;;;;;;5067681;28;20695;-77
2021/05/02 00:34:27;;;;;;;0.57;0.57;;;6.50;99.90;;;;;;5068587;28;20200;-77
2021/05/02 00:36:53;;;;;;;0.60;0.60;;;6.50;99.90;;;;;;5067755;28;20230;-77
2021/05/02 00:39:21;;;;;;;0.60;0.60;;;6.50;99.90;;;;;;5068388;28;20203;-77
2021/05/02 00:41:57;;;;;;;0.60;0.60;;;6.60;99.90;;;;;;5067194;28;20222;-77
2021/05/02 00:44:26;;;;;;;0.50;0.50;;;6.60;99.90;;;;;;5068457;28;20203;-77
2021/05/02 00:46:54;;;;;;;0.60;0.60;;;6.50;99.90;;;;;;5068079;28;20218;-77
2021/05/02 00:49:29;;;;;;;0.60;0.60;;;6.60;99.90;;;;;;5070048;28;20192;-76
2021/05/02 00:51:58;;;;;;;0.60;0.60;;;6.40;99.90;;;;;;5071637;28;20209;-77
2021/05/02 00:54:34;;;;;;;0.60;0.60;;;6.70;99.90;;;;;;5071948;28;20203;-76
2021/05/02 00:57:02;;;;;;;0.60;0.60;;;6.50;99.90;;;;;;5070877;28;20321;-76
2021/05/02 00:59:49;;;;;;;0.60;0.60;;;6.60;99.90;;;;;;5072090;28;20617;-77
2021/05/02 01:02:17;;;;;;;0.50;0.50;;;6.60;99.90;;;;;;5071540;28;20203;-77
2021/05/02 01:04:46;;;;;;;0.60;0.60;;;6.50;99.90;;;;;;5071612;28;20235;-77
2021/05/02 01:07:17;;;;;;;0.60;0.60;;;6.40;99.90;;;;;;5071727;28;20196;-77
2021/05/02 01:09:44;;;;;;;0.50;0.50;;;6.50;99.90;;;;;;5071728;28;20215;-76
2021/05/02 01:12:13;;;;;;;0.52;0.52;;;6.60;99.90;;;;;;5070720;28;20582;-76
2021/05/02 01:14:45;;;;;;;0.50;0.50;;;6.60;99.90;;;;;;5071716;28;20208;-76
2021/05/02 01:17:14;;;;;;;0.60;0.60;;;6.90;99.90;;;;;;5055588;28;20215;-77
2021/05/02 01:19:40;;;;;;;0.57;0.57;;;6.60;99.90;;;;;;5071212;28;20265;-77
2021/05/02 01:22:13;;;;;;;0.60;0.60;;;6.60;99.90;;;;;;5070516;28;20337;-77
2021/05/02 01:24:41;;;;;;;0.57;0.57;;;6.60;99.90;;;;;;5071116;28;20210;-77
2021/05/02 01:27:07;;;;;;;0.50;0.50;;;6.40;99.90;;;;;;5067671;28;20223;-76
2021/05/02 01:29:34;;;;;;;0.60;0.60;;;6.50;99.90;;;;;;5071517;28;20226;-77
2021/05/02 01:32:02;;;;;;;0.50;0.50;;;6.40;99.90;;;;;;5070177;28;20610;-77
2021/05/02 01:34:29;;;;;;;0.60;0.60;;;6.40;99.90;;;;;;5071228;28;20210;-77
2021/05/02 01:36:55;;;;;;;0.60;0.60;;;6.40;99.90;;;;;;5070788;28;20223;-76
2021/05/02 01:39:24;;;;;;;0.55;0.55;;;6.30;99.90;;;;;;5069177;28;20286;-78
2021/05/02 01:41:51;;;;;;;0.60;0.60;;;6.20;99.90;;;;;;5069236;28;20211;-77
2021/05/02 01:44:17;;;;;;;0.52;0.52;;;6.20;99.90;;;;;;5071268;28;20203;-78
2021/05/02 01:46:46;;;;;;;0.60;0.60;;;6.30;99.90;;;;;;5070422;28;20214;-77
2021/05/02 01:49:17;;;;;;;0.50;0.50;;;6.20;99.90;;;;;;5070836;28;20214;-78
2021/05/02 01:51:44;;;;;;;0.60;0.60;;;6.10;99.90;;;;;;5070497;28;20208;-78
2021/05/02 01:54:13;;;;;;;0.57;0.57;;;6.00;99.90;;;;;;5070416;28;20212;-78
2021/05/02 01:56:39;;;;;;;0.50;0.50;;;5.90;99.90;;;;;;5068949;28;20206;-78
2021/05/02 01:59:06;;;;;;;0.50;0.50;;;6.10;99.90;;;;;;5067738;28;20199;-77
2021/05/02 02:01:33;;;;;;;0.50;0.50;;;6.00;99.90;;;;;;5067613;28;20203;-78
2021/05/02 02:04:02;;;;;;;0.60;0.60;;;6.00;99.90;;;;;;5068823;28;20196;-77
2021/05/02 02:06:29;;;;;;;0.60;0.60;;;5.90;99.90;;;;;;5070579;28;20200;-78
2021/05/02 02:08:57;;;;;;;0.60;0.60;;;5.80;99.90;;;;;;5070439;28;20199;-77
2021/05/02 02:11:24;;;;;;;0.60;0.60;;;5.80;99.90;;;;;;5070238;28;20196;-76
2021/05/02 02:13:50;;;;;;;0.50;0.50;;;5.80;99.90;;;;;;5070506;28;20291;-76
2021/05/02 02:16:17;;;;;;;0.60;0.60;;;5.80;99.90;;;;;;5061412;28;20199;-76
2021/05/02 02:18:43;;;;;;;0.60;0.60;;;5.70;99.90;;;;;;5059890;28;20220;-77
2021/05/02 02:21:12;;;;;;;0.60;0.60;;;5.70;99.90;;;;;;5059341;28;20196;-77
2021/05/02 02:23:41;;;;;;;0.60;0.60;;;5.70;99.90;;;;;;5067566;28;20633;-76
2021/05/02 02:26:18;;;;;;;0.60;0.60;;;5.60;99.90;;;;;;5069809;28;20705;-77
2021/05/02 02:28:47;;;;;;;0.60;0.60;;;5.40;99.90;;;;;;5068231;28;20674;-77
2021/05/02 02:31:13;;;;;;;0.50;0.50;;;5.60;99.90;;;;;;5070415;28;20196;-77
2021/05/02 02:33:42;;;;;;;0.60;0.60;;;5.60;99.90;;;;;;5067137;28;20204;-77
2021/05/02 02:36:13;;;;;;;0.57;0.57;;;5.60;99.90;;;;;;5069925;28;20561;-76
2021/05/02 02:38:41;;;;;;;0.60;0.60;;;5.60;99.90;;;;;;5066763;28;20598;-77
2021/05/02 02:41:12;;;;;;;0.50;0.50;;;5.60;99.90;;;;;;5069822;28;20203;-76
2021/05/02 02:43:41;;;;;;;0.60;0.60;;;5.70;99.90;;;;;;5069640;28;20199;-77
2021/05/02 02:46:15;;;;;;;0.60;0.60;;;5.50;99.90;;;;;;5070017;28;20199;-77
2021/05/02 02:48:48;;;;;;;0.60;0.60;;;5.60;99.90;;;;;;5066856;28;20422;-77
2021/05/02 02:51:17;;;;;;;0.50;0.50;;;5.60;99.90;;;;;;5069523;28;20211;-77
2021/05/02 02:53:46;;;;;;;0.60;0.60;;;5.50;99.90;;;;;;5066829;28;20221;-77
2021/05/02 02:56:14;;;;;;;0.55;0.55;;;5.60;99.90;;;;;;5069749;28;20207;-77
2021/05/02 02:58:43;;;;;;;0.60;0.60;;;5.60;99.90;;;;;;5069129;28;20633;-77
2021/05/02 03:01:12;;;;;;;0.60;0.60;;;5.60;99.90;;;;;;5069276;28;20690;-77
2021/05/02 03:03:41;;;;;;;0.60;0.60;;;5.60;99.90;;;;;;5069272;28;20232;-77
2021/05/02 03:06:08;;;;;;;0.55;0.55;;;5.60;99.90;;;;;;5069154;28;20228;-77
2021/05/02 03:08:38;;;;;;;0.60;0.60;;;5.50;99.90;;;;;;5069419;28;20237;-76
2021/05/02 03:11:04;;;;;;;0.60;0.60;;;5.60;99.90;;;;;;5065607;28;20196;-76
2021/05/02 03:13:31;;;;;;;0.55;0.55;;;5.60;99.90;;;;;;5069217;28;20195;-77
2021/05/02 03:16:00;;;;;;;0.60;0.60;;;5.60;99.90;;;;;;5069172;28;20546;-77
2021/05/02 03:18:28;;;;;;;0.50;0.50;;;5.60;99.90;;;;;;5066657;28;20215;-76
2021/05/02 03:21:06;;;;;;;0.60;0.60;;;5.60;99.90;;;;;;5068827;28;20650;-76
2021/05/02 03:23:38;;;;;;;0.60;0.60;;;5.60;99.90;;;;;;5067427;28;20203;-76
2021/05/02 03:26:06;;;;;;;0.50;0.50;;;5.60;99.90;;;;;;5068843;28;20219;-76
2021/05/02 03:28:35;;;;;;;0.60;0.60;;;5.50;99.90;;;;;;5068978;28;20542;-76
2021/05/02 03:31:04;;;;;;;0.60;0.60;;;5.50;99.90;;;;;;5068858;28;20203;-76
2021/05/02 03:33:35;;;;;;;0.60;0.60;;;5.50;99.90;;;;;;5068767;28;20192;-76
2021/05/02 03:36:09;;;;;;;0.60;0.60;;;5.40;99.90;;;;;;5068780;28;20666;-76
2021/05/02 03:38:47;;;;;;;0.50;0.50;;;5.50;99.90;;;;;;5067304;28;20230;-76
2021/05/02 03:41:14;;;;;;;0.60;0.60;;;5.40;99.90;;;;;;5066910;28;20203;-75
2021/05/02 03:43:40;;;;;;;0.60;0.60;;;5.30;99.90;;;;;;5068906;28;20215;-76
2021/05/02 03:46:06;;;;;;;0.60;0.60;;;5.40;99.90;;;;;;5068641;28;20569;-75
2021/05/02 03:48:48;;;;;;;0.60;0.60;;;5.40;99.90;;;;;;5066210;28;20192;-76
2021/05/02 03:51:15;;;;;;;0.60;0.60;;;5.30;99.90;;;;;;5068379;28;20192;-76
2021/05/02 03:53:42;;;;;;;0.50;0.50;;;5.40;99.90;;;;;;5068785;28;20199;-76
2021/05/02 03:56:08;;;;;;;0.50;0.50;;;5.40;99.90;;;;;;5068542;28;20210;-76
2021/05/02 03:58:36;;;;;;;0.57;0.57;;;5.40;99.90;;;;;;5068323;28;20841;-76
2021/05/02 04:01:02;;;;;;;0.60;0.60;;;7.90;99.90;;;;;;5068531;28;20196;-76
2021/05/02 04:03:28;;;;;;;0.57;0.57;;;5.40;99.90;;;;;;5068612;28;20195;-76
2021/05/02 04:05:54;;;;;;;0.60;0.60;;;5.50;99.90;;;;;;5068396;28;20228;-76
2021/05/02 04:08:20;;;;;;;0.50;0.50;;;5.50;99.90;;;;;;5068405;28;20184;-76
2021/05/02 04:10:47;;;;;;;0.52;0.52;;;5.60;99.90;;;;;;5068483;28;20196;-76
2021/05/02 04:13:13;;;;;;;0.50;0.50;;;5.70;99.90;;;;;;5068712;28;20221;-76
2021/05/02 04:15:39;;;;;;;0.60;0.60;;;5.70;99.90;;;;;;5068675;28;20195;-76
2021/05/02 04:18:05;;;;;;;0.50;0.50;;;5.60;99.90;;;;;;5067946;28;20598;-77
2021/05/02 04:20:31;;;;;;;0.60;0.60;;;5.60;99.90;;;;;;5065948;28;20192;-76
2021/05/02 04:22:57;;;;;;;0.50;0.50;;;5.70;99.90;;;;;;5069575;28;20202;-76
2021/05/02 04:25:23;;;;;;;0.60;0.60;;;5.70;99.90;;;;;;5072127;28;20222;-76
2021/05/02 04:27:50;;;;;;;0.60;0.60;;;5.70;99.90;;;;;;5072314;28;20218;-76
2021/05/02 04:30:17;;;;;;;0.60;0.60;;;5.70;99.90;;;;;;5072437;28;20211;-76
2021/05/02 04:32:45;;;;;;;0.50;0.50;;;5.80;99.90;;;;;;5072459;28;20207;-76
2021/05/02 04:35:11;;;;;;;0.50;0.50;;;5.80;99.90;;;;;;5071983;28;20200;-76
2021/05/02 04:37:37;;;;;;;0.50;0.50;;;5.80;99.90;;;;;;5072060;28;20689;-76
2021/05/02 04:40:04;;;;;;;0.50;0.50;;;5.70;99.90;;;;;;5072197;28;20192;-76
2021/05/02 04:42:31;;;;;;;0.55;0.55;;;6.00;99.90;;;;;;5071999;28;20204;-76
2021/05/02 04:44:57;;;;;;;0.50;0.50;;;6.00;99.90;;;;;;5072018;28;20199;-76
2021/05/02 04:47:23;;;;;;;0.60;0.60;;;6.00;99.90;;;;;;5071657;28;20199;-76
2021/05/02 04:49:50;;;;;;;0.60;0.60;;;5.90;99.90;;;;;;5071894;28;20203;-76
2021/05/02 04:52:16;;;;;;;0.50;0.50;;;5.90;99.90;;;;;;5071772;28;20196;-76
2021/05/02 04:54:42;;;;;;;0.50;0.50;;;6.00;99.90;;;;;;5071970;28;20207;-76
2021/05/02 04:57:08;;;;;;;0.60;0.60;;;5.90;99.90;;;;;;5071413;28;20199;-76
2021/05/02 04:59:35;;;;;;;0.50;0.50;;;6.00;99.90;;;;;;5071838;28;20196;-76
2021/05/02 05:02:03;;;;;;;0.60;0.60;;;6.00;99.90;;;;;;5071679;28;20222;-76
2021/05/02 05:04:29;;;;;;;0.60;0.60;;;5.90;99.90;;;;;;5071208;28;20219;-76
2021/05/02 05:06:56;;;;;;;0.57;0.57;;;6.00;99.90;;;;;;5071655;28;20200;-76
2021/05/02 05:09:23;;;;;;;0.50;0.50;;;5.90;99.90;;;;;;5071540;28;20196;-76
2021/05/02 05:11:49;;;;;;;0.60;0.60;;;6.10;99.90;;;;;;5071322;28;20449;-76
2021/05/02 05:14:15;;;;;;;0.50;0.50;;;6.10;99.90;;;;;;5071292;28;20200;-76
2021/05/02 05:16:41;;;;;;;0.57;0.57;;;6.10;99.90;;;;;;5071501;28;20225;-76
2021/05/02 05:19:08;;;;;;;0.50;0.50;;;6.20;99.90;;;;;;5071255;28;20215;-76
2021/05/02 05:21:34;;;;;;;0.50;0.50;;;6.10;99.90;;;;;;5071445;28;20192;-76
2021/05/02 05:24:00;;;;;;;0.60;0.60;;;6.20;99.90;;;;;;5071370;28;20200;-76
2021/05/02 05:26:27;;;;;;;0.60;0.60;;;6.20;99.90;;;;;;5071153;28;20212;-76
2021/05/02 05:28:53;;;;;;;0.50;0.50;;;6.30;99.90;;;;;;5071545;28;20229;-76
2021/05/02 05:31:19;;;;;;;0.60;0.60;;;6.40;99.90;;;;;;5068445;28;20615;-76
2021/05/02 05:33:46;;;;;;;0.50;0.50;;;6.30;99.90;;;;;;5071189;28;20200;-76
2021/05/02 05:36:13;;;;;;;0.50;0.50;;;6.40;99.90;;;;;;5070338;28;20207;-76
2021/05/02 05:38:39;;;;;;;0.50;0.50;;;6.40;99.90;;;;;;5071005;28;20220;-76
2021/05/02 05:41:05;;;;;;;0.52;0.52;;;6.30;99.90;;;;;;5070613;28;20873;-76
2021/05/02 05:43:31;;;;;;;0.60;0.60;;;6.30;99.90;;;;;;5071021;28;20196;-76
2021/05/02 05:45:57;;;;;;;0.60;0.60;;;6.30;99.90;;;;;;5070930;28;20200;-76
2021/05/02 05:48:24;;;;;;;0.60;0.60;;;6.50;99.90;;;;;;5070657;28;20195;-76
2021/05/02 05:50:50;;;;;;;0.60;0.60;;;6.40;99.90;;;;;;5070717;28;20203;-76
2021/05/02 05:53:17;;;;;;;0.60;0.60;;;6.50;99.90;;;;;;5070809;28;20576;-76
2021/05/02 05:55:44;;;;;;;0.60;0.60;;;6.60;99.90;;;;;;5068224;28;20196;-76
2021/05/02 05:58:10;;;;;;;0.60;0.60;;;6.80;99.90;;;;;;5070443;28;20607;-76
2021/05/02 06:00:36;;;;;;;0.60;0.60;;;6.60;99.90;;;;;;5070807;28;20252;-76
2021/05/02 06:03:03;;;;;;;0.55;0.55;;;6.80;99.90;;;;;;5067890;28;20196;-75
2021/05/02 06:05:29;;;;;;;0.57;0.57;;;6.70;99.90;;;;;;5070424;28;20263;-76
2021/05/02 06:07:55;;;;;;;0.50;0.50;;;6.80;99.90;;;;;;5070665;28;20196;-76
2021/05/02 06:10:22;;;;;;;0.50;0.50;;;6.90;99.90;;;;;;5070414;28;20265;-75
2021/05/02 06:12:48;;;;;;;0.50;0.50;;;6.90;99.90;;;;;;5070372;28;20214;-76
2021/05/02 06:15:14;;;;;;;0.50;0.50;;;7.00;99.90;;;;;;5070303;28;20206;-76
2021/05/02 06:17:41;;;;;;;0.60;0.60;;;7.00;99.90;;;;;;5070250;28;20212;-76
2021/05/02 06:20:08;;;;;;;0.50;0.50;;;7.00;99.90;;;;;;5070452;28;20207;-77
2021/05/02 06:22:34;;;;;;;0.60;0.60;;;7.20;99.90;;;;;;5070014;28;20204;-76
2021/05/02 06:25:00;;;;;;;0.60;0.60;;;7.20;99.90;;;;;;5070332;28;20218;-79
2021/05/02 06:27:27;;;;;;;0.60;0.60;;;7.20;99.90;;;;;;5069719;28;20226;-79
2021/05/02 06:29:54;;;;;;;0.57;0.57;;;7.30;99.90;;;;;;5070167;28;20206;-77
2021/05/02 06:32:20;;;;;;;0.50;0.50;;;7.50;99.90;;;;;;5069975;28;20199;-77
2021/05/02 06:34:46;;;;;;;0.60;0.60;;;7.50;99.90;;;;;;5067169;28;20199;-77
2021/05/02 06:37:12;;;;;;;0.60;0.60;;;7.70;99.90;;;;;;5069618;28;20200;-78
2021/05/02 06:39:38;;;;;;;0.60;0.60;;;7.70;99.90;;;;;;5069991;28;20559;-77
2021/05/02 06:42:05;;;;;;;0.60;0.60;;;7.80;99.90;;;;;;5070259;28;20203;-78
2021/05/02 06:44:32;;;;;;;0.50;0.50;;;7.70;99.90;;;;;;5069969;28;20285;-78
2021/05/02 06:46:58;;;;;;;0.60;0.60;;;7.80;99.90;;;;;;5070275;28;20207;-78
2021/05/02 06:49:25;;;;;;;0.50;0.50;;;7.80;99.90;;;;;;5070274;28;20222;-78
2021/05/02 06:51:52;;;;;;;0.60;0.60;;;7.80;99.90;;;;;;5069960;28;20216;-76
2021/05/02 06:54:18;;;;;;;0.60;0.60;;;7.70;99.90;;;;;;5069940;28;20733;-77
2021/05/02 06:56:44;;;;;;;0.50;0.50;;;7.70;99.90;;;;;;5066636;28;20211;-75
2021/05/02 06:59:11;;;;;;;0.60;0.60;;;7.80;99.90;;;;;;5068519;28;20277;-80
2021/05/02 07:01:38;;;;;;;0.60;0.60;;;7.80;99.90;;;;;;5067922;28;20222;-77
2021/05/02 07:04:04;;;;;;;0.50;0.50;;;7.90;99.90;;;;;;5070087;28;20195;-77
2021/05/02 07:06:31;;;;;;;0.60;0.60;;;8.00;99.90;;;;;;5069910;28;20207;-78
2021/05/02 07:08:57;;;;;;;0.50;0.50;;;8.00;99.90;;;;;;5070647;28;20574;-77
2021/05/02 07:11:23;;;;;;;0.60;0.60;;;8.00;99.90;;;;;;5070584;28;20211;-80
2021/05/02 07:13:49;;;;;;;0.60;0.60;;;8.30;99.90;;;;;;5070666;28;20612;-78
2021/05/02 07:16:17;;;;;;;0.60;0.60;;;8.30;99.90;;;;;;5068340;28;20476;-78
2021/05/02 07:18:44;;;;;;;0.60;0.60;;;8.30;99.90;;;;;;5069808;28;20254;-81
2021/05/02 07:21:11;;;;;;;0.50;0.50;;;8.50;99.90;;;;;;5069857;28;20207;-79
2021/05/02 07:23:39;;;;;;;0.50;0.50;;;8.40;99.90;;;;;;5069536;28;20203;-77
2021/05/02 07:26:06;;;;;;;0.50;0.50;;;8.50;99.90;;;;;;5070368;28;20220;-78
2021/05/02 07:28:32;;;;;;;0.60;0.60;;;8.50;99.90;;;;;;5066760;28;20269;-78
2021/05/02 07:30:59;;;;;;;0.60;0.60;;;8.40;99.90;;;;;;5068601;28;20188;-78
2021/05/02 07:33:27;;;;;;;0.60;0.60;;;8.40;99.90;;;;;;5069523;28;20207;-79
2021/05/02 07:35:54;;;;;;;0.60;0.60;;;8.50;99.90;;;;;;5069192;28;20681;-76
2021/05/02 07:38:20;;;;;;;0.60;0.60;;;8.60;99.90;;;;;;5069233;28;20249;-76
2021/05/02 07:40:46;;;;;;;0.60;0.60;;;8.70;99.90;;;;;;5067890;28;20199;-76
2021/05/02 07:43:12;;;;;;;0.60;0.60;;;8.80;99.90;;;;;;5069890;28;20260;-76
2021/05/02 07:45:39;;;;;;;0.60;0.60;;;8.90;99.90;;;;;;5069301;28;20207;-76
2021/05/02 07:48:05;;;;;;;0.60;0.60;;;9.90;99.90;;;;;;5069805;28;20670;-76
2021/05/02 07:50:32;;;;;;;0.60;0.60;;;8.90;99.90;;;;;;5069429;28;20210;-75
2021/05/02 07:52:59;;;;;;;0.60;0.60;;;9.00;99.90;;;;;;5069632;28;20216;-76
2021/05/02 07:55:25;;;;;;;0.60;0.60;;;9.10;99.90;;;;;;5069311;28;20214;-76
2021/05/02 07:57:51;;;;;;;0.60;0.60;;;9.10;99.90;;;;;;5068958;28;20276;-76
2021/05/02 08:00:19;;;;;;;0.57;0.57;;;9.10;99.90;;;;;;5069570;28;20616;-76
2021/05/02 08:02:45;;;;;;;0.60;0.60;;;9.30;99.90;;;;;;5069039;28;20200;-76
2021/05/02 08:05:12;;;;;;;0.50;0.50;;;9.40;99.90;;;;;;5068949;28;20721;-77
2021/05/02 08:07:38;;;;;;;0.57;0.57;;;9.20;99.90;;;;;;5069540;28;20654;-77
2021/05/02 08:10:07;;;;;;;0.57;0.57;;;9.30;99.90;;;;;;5069193;28;20204;-76
2021/05/02 08:12:34;;;;;;;0.60;0.60;;;9.30;99.90;;;;;;5069255;28;20204;-76
2021/05/02 08:15:00;;;;;;;0.60;0.60;;;9.10;99.90;;;;;;5069409;28;20199;-77
2021/05/02 08:17:29;;;;;;;0.50;0.50;;;9.20;99.90;;;;;;5068845;28;20628;-77
2021/05/02 08:19:55;;;;;;;0.52;0.52;;;9.30;99.90;;;;;;5069315;28;20211;-77
2021/05/02 08:22:21;;;;;;;0.60;0.60;;;9.20;99.90;;;;;;5069346;28;20242;-78
2021/05/02 08:24:48;;;;;;;0.60;0.60;;;9.30;99.90;;;;;;5068911;28;20204;-78
2021/05/02 08:27:15;;;;;;;0.50;0.50;;;9.30;99.90;;;;;;5069171;28;20643;-77
2021/05/02 08:29:41;;;;;;;0.60;0.60;;;9.20;99.90;;;;;;5069402;28;20207;-77
2021/05/02 08:32:07;;;;;;;0.60;0.60;;;9.10;99.90;;;;;;5069156;28;20212;-78
2021/05/02 08:34:33;;;;;;;0.50;0.50;;;9.00;99.90;;;;;;5068936;28;20669;-77
2021/05/02 08:36:59;;;;;;;0.60;0.60;;;8.90;99.90;;;;;;5068794;28;20221;-77
2021/05/02 08:39:27;;;;;;;0.60;0.60;;;8.80;99.90;;;;;;5068248;28;20220;-77
2021/05/02 08:41:53;;;;;;;0.50;0.50;;;8.80;99.90;;;;;;5068022;28;20234;-77
2021/05/02 08:44:24;;;;;;;0.60;0.60;;;8.90;99.90;;;;;;5065201;28;20196;-77
2021/05/02 08:46:50;;;;;;;0.60;0.60;;;9.00;99.90;;;;;;5066525;28;20700;-77
2021/05/02 08:49:18;;;;;;;0.57;0.57;;;9.20;99.90;;;;;;5068495;28;20218;-77
2021/05/02 08:51:44;;;;;;;0.60;0.60;;;9.30;99.90;;;;;;5068095;28;20200;-77
2021/05/02 08:54:10;;;;;;;0.50;0.50;;;9.30;99.90;;;;;;5068444;28;20192;-77
2021/05/02 08:56:37;;;;;;;0.60;0.60;;;9.40;99.90;;;;;;5068237;28;20564;-77
2021/05/02 08:59:03;;;;;;;0.60;0.60;;;9.30;99.90;;;;;;5067915;28;20219;-77
2021/05/02 09:01:31;;;;;;;0.60;0.60;;;9.30;99.90;;;;;;5068122;28;20191;-77
2021/05/02 09:04:02;;;;;;;0.60;0.60;;;9.40;99.90;;;;;;5067880;28;20192;-77
2021/05/02 09:06:30;;;;;;;0.60;0.60;;;9.40;99.90;;;;;;5068439;28;20192;-76
2021/05/02 09:09:03;;;;;;;0.60;0.60;;;9.40;99.90;;;;;;5067828;28;20196;-76
2021/05/02 09:11:34;;;;;;;0.60;0.60;;;9.30;99.90;;;;;;5071656;28;20204;-76
2021/05/02 09:14:03;;;;;;;0.50;0.50;;;9.40;99.90;;;;;;5071839;28;20196;-76
2021/05/02 09:16:44;;;;;;;0.60;0.60;;;9.30;99.90;;;;;;5071399;28;20720;-76
2021/05/02 09:19:10;;;;;;;0.50;0.50;;;9.40;99.90;;;;;;5068808;28;20272;-76
2021/05/02 09:21:36;;;;;;;0.60;0.60;;;9.50;99.90;;;;;;5071464;28;20269;-76
2021/05/02 09:24:07;;;;;;;0.50;0.50;;;9.60;99.90;;;;;;5071620;28;20211;-76
2021/05/02 09:26:35;;;;;;;0.60;0.60;;;9.60;99.90;;;;;;5069145;28;20593;-76
2021/05/02 09:29:05;;;;;;;0.50;0.50;;;9.70;99.90;;;;;;5071085;28;20241;-76
2021/05/02 09:31:35;;;;;;;0.60;0.60;;;9.80;99.90;;;;;;5069326;28;20568;-77
2021/05/02 09:34:11;;;;;;;0.60;0.60;;;9.90;99.90;;;;;;5071214;28;20199;-76
2021/05/02 09:36:50;;;;;;;0.60;0.60;;;10.00;99.90;;;;;;5069419;28;20200;-76
2021/05/02 09:39:35;;;;;;;0.60;0.60;;;9.90;99.90;;;;;;5069358;28;20223;-76
2021/05/02 09:42:06;;;;;;;0.60;0.60;;;10.00;99.90;;;;;;5071615;28;20558;-77
2021/05/02 09:44:42;;;;;;;0.60;0.60;;;10.00;99.90;;;;;;5071829;28;20211;-77
2021/05/02 09:47:28;;;;;;;0.60;0.60;;;10.10;99.90;;;;;;5071820;28;20340;-77
2021/05/02 09:50:06;;;;;;;0.60;0.60;;;10.10;99.90;;;;;;5071535;28;20215;-77
2021/05/02 09:52:49;;;;;;;0.55;0.55;;;10.40;99.90;;;;;;5069114;28;20257;-76
2021/05/02 09:55:30;;;;;;;0.60;0.60;;;10.40;99.90;;;;;;5050231;28;20288;-76
2021/05/02 09:58:04;;;;;;;0.60;0.60;;;10.30;99.90;;;;;;5038994;28;20227;-76
2021/05/02 10:00:35;;;;;;;0.50;0.50;;;10.30;99.90;;;;;;5069350;28;20584;-78
2021/05/02 10:03:06;;;;;;;0.60;0.60;;;10.30;99.90;;;;;;5070331;28;20212;-76
2021/05/02 10:05:34;;;;;;;0.55;0.55;;;10.20;99.90;;;;;;5070880;28;20300;-77
2021/05/02 10:08:00;;;;;;;0.60;0.60;;;10.10;99.90;;;;;;5071313;28;20613;-77
2021/05/02 10:10:26;;;;;;;0.60;0.60;;;10.30;99.90;;;;;;5070776;28;20212;-77
2021/05/02 10:12:54;;;;;;;0.60;0.60;;;10.40;99.90;;;;;;5068869;28;20204;-77
2021/05/02 10:15:21;;;;;;;0.60;0.60;;;10.50;99.90;;;;;;5071111;28;20199;-77
2021/05/02 10:17:51;;;;;;;0.60;0.60;;;10.40;99.90;;;;;;5071177;28;20588;-77
2021/05/02 10:20:20;;;;;;;0.60;0.60;;;10.60;99.90;;;;;;5070660;28;20208;-78
2021/05/02 10:22:48;;;;;;;0.60;0.60;;;10.50;99.90;;;;;;5070756;28;20200;-78
2021/05/02 10:25:15;;;;;;;0.60;0.60;;;10.80;99.90;;;;;;5068992;28;20208;-77
2021/05/02 10:27:45;;;;;;;0.52;0.52;;;11.00;99.90;;;;;;5070176;28;20640;-79
2021/05/02 10:30:19;;;;;;;0.52;0.52;;;11.20;99.90;;;;;;5070645;28;20669;-77
2021/05/02 10:32:50;;;;;;;0.60;0.60;;;11.40;99.90;;;;;;5070453;28;20222;-79
2021/05/02 10:35:19;;;;;;;0.60;0.60;;;11.30;99.90;;;;;;5069609;28;20665;-79
2021/05/02 10:37:56;;;;;;;0.60;0.60;;;11.30;99.90;;;;;;5070286;28;20261;-80
2021/05/02 10:40:31;;;;;;;0.52;0.52;;;11.50;99.90;;;;;;5071973;28;20204;-77
2021/05/02 10:43:03;;;;;;;0.60;0.60;;;11.70;99.90;;;;;;5069676;28;20199;-82
2021/05/02 10:45:46;;;;;;;0.60;0.60;;;11.70;99.90;;;;;;5070500;28;20214;-78
2021/05/02 10:48:35;;;;;;;0.60;0.60;;;11.70;99.90;;;;;;5070118;28;20203;-77
2021/05/02 10:51:01;;;;;;;0.60;0.60;;;12.00;99.90;;;;;;5070173;28;20212;-76
2021/05/02 10:53:28;;;;;;;0.60;0.60;;;11.70;99.90;;;;;;5067771;28;20196;-76
2021/05/02 10:55:56;;;;;;;0.60;0.60;;;11.80;99.90;;;;;;5066906;28;20204;-77
2021/05/02 10:58:25;;;;;;;0.60;0.60;;;11.70;99.90;;;;;;5069819;28;20228;-76
2021/05/02 11:00:55;;;;;;;0.60;0.60;;;11.60;99.90;;;;;;5069479;28;20203;-77
2021/05/02 11:03:50;;;;;;;0.60;0.60;;;11.50;99.90;;;;;;5069349;28;20749;-77
2021/05/02 11:06:52;;;;;;;0.60;0.60;;;11.50;99.90;;;;;;5063651;28;20231;-76
2021/05/02 11:09:23;;;;;;;0.60;0.60;;;11.40;99.90;;;;;;5069097;28;20203;-77
2021/05/02 11:11:51;;;;;;;0.50;0.50;;;11.30;99.90;;;;;;5069021;28;20207;-76
2021/05/02 11:14:36;;;;;;;0.60;0.60;;;11.30;99.90;;;;;;5069092;28;20207;-77
2021/05/02 11:17:25;;;;;;;0.60;0.60;;;11.40;99.90;;;;;;5069383;28;20206;-76
2021/05/02 11:19:54;;;;;;;0.60;0.60;;;11.50;99.90;;;;;;5069043;28;20228;-76
2021/05/02 11:22:22;;;;;;;0.60;0.60;;;11.50;99.90;;;;;;5068991;28;20208;-76
2021/05/02 11:25:04;;;;;;;0.60;0.60;;;12.80;99.90;;;;;;5068521;28;20274;-76
2021/05/02 11:30:47;;;;;;;0.60;0.60;;;10.80;99.90;;;;;;5058226;28;20195;-76
2021/05/02 11:33:29;;;;;;;0.57;0.57;;;11.60;99.90;;;;;;5068221;28;20297;-76
2021/05/02 11:35:56;;;;;;;0.60;0.60;;;12.10;99.90;;;;;;5069035;28;20642;-76
2021/05/02 11:38:43;;;;;;;0.60;0.60;;;12.50;99.90;;;;;;5069257;28;20315;-77
2021/05/02 11:41:11;;;;;;;0.60;0.60;;;12.20;99.90;;;;;;5068142;28;20207;-77
2021/05/02 11:43:42;;;;;;;0.60;0.60;;;12.30;99.90;;;;;;5068342;28;20665;-76
2021/05/02 11:46:17;;;;;;;0.55;0.55;;;12.30;99.90;;;;;;5068245;28;20218;-76
2021/05/02 11:48:44;;;;;;;0.60;0.60;;;11.90;99.90;;;;;;5066857;28;20203;-76
2021/05/02 11:51:19;;;;;;;0.60;0.60;;;11.50;99.90;;;;;;5068686;28;20662;-76
2021/05/02 11:53:47;;;;;;;0.60;0.60;;;11.10;99.90;;;;;;5068834;28;20207;-76
2021/05/02 11:56:30;;;;;;;0.60;0.60;;;11.10;99.90;;;;;;5067477;28;20243;-76
2021/05/02 11:59:02;;;;;;;0.60;0.60;;;11.40;99.90;;;;;;5061651;28;20227;-76
2021/05/02 12:01:30;;;;;;;0.60;0.60;;;11.30;99.90;;;;;;5067475;28;20257;-76
2021/05/02 12:04:03;;;;;;;0.60;0.60;;;11.00;99.90;;;;;;5068236;28;20211;-77
2021/05/02 12:06:31;;;;;;;0.60;0.60;;;10.90;99.90;;;;;;5067388;28;20265;-76
2021/05/02 12:08:59;;;;;;;0.60;0.60;;;10.60;99.90;;;;;;5068320;28;20192;-77
2021/05/02 12:11:26;;;;;;;0.60;0.60;;;10.80;99.90;;;;;;5067013;28;20203;-77
2021/05/02 12:13:55;;;;;;;0.60;0.60;;;10.80;99.90;;;;;;5068057;28;20607;-76
2021/05/02 12:16:23;;;;;;;0.60;0.60;;;10.80;99.90;;;;;;5068370;28;20273;-76
2021/05/02 12:18:58;;;;;;;0.60;0.60;;;10.90;99.90;;;;;;4998574;28;20228;-79
2021/05/02 12:21:27;;;;;;;0.60;0.60;;;11.00;99.90;;;;;;5005998;28;20202;-77
2021/05/02 12:24:02;;;;;;;0.60;0.60;;;11.00;99.90;;;;;;5065872;28;20207;-78
2021/05/02 12:26:28;;;;;;;0.60;0.60;;;10.90;99.90;;;;;;5063690;28;20223;-77
2021/05/02 12:28:58;;;;;;;0.60;0.60;;;11.10;99.90;;;;;;5067894;28;20565;-77
2021/05/02 12:31:25;;;;;;;0.60;0.60;;;11.10;99.90;;;;;;5067918;28;20203;-78
2021/05/02 12:33:53;;;;;;;0.60;0.60;;;11.40;99.90;;;;;;5067113;28;20214;-78
2021/05/02 12:36:19;;;;;;;0.57;0.57;;;12.00;99.90;;;;;;5067899;28;20650;-78
2021/05/02 12:38:45;;;;;;;0.60;0.60;;;12.20;99.90;;;;;;5067989;28;20280;-79
2021/05/02 12:41:19;;;;;;;0.60;0.60;;;12.10;99.90;;;;;;5067736;28;20576;-78
2021/05/02 12:43:49;;;;;;;0.60;0.60;;;11.80;99.90;;;;;;5068398;28;20212;-78
2021/05/02 12:46:35;;;;;;;0.60;0.60;;;11.60;99.90;;;;;;5071556;28;20203;-79
2021/05/02 12:49:08;;;;;;;0.60;0.60;;;11.50;99.90;;;;;;5063124;28;20207;-76
2021/05/02 12:51:34;;;;;;;0.60;0.60;;;11.30;99.90;;;;;;5072228;28;20226;-76
2021/05/02 12:54:09;;;;;;;0.60;0.60;;;11.10;99.90;;;;;;5071080;28;20263;-78
2021/05/02 12:56:37;;;;;;;0.60;0.60;;;11.00;99.90;;;;;;5063438;28;21179;-78
2021/05/02 12:59:27;;;;;;;0.60;0.60;;;10.80;99.90;;;;;;5064396;28;20223;-80
2021/05/02 13:02:07;;;;;;;0.50;0.50;;;10.70;99.90;;;;;;5066737;28;20278;-79
2021/05/02 13:04:50;;;;;;;0.50;0.50;;;10.60;99.90;;;;;;5072080;28;20227;-79
2021/05/02 13:07:29;;;;;;;0.60;0.60;;;10.40;99.90;;;;;;5068537;28;20207;-78